sensor_id;sensor_type;location;lat;lon;timestamp;pressure;altitude;pressure_sealevel;temperature;humidity
13013;BME280;22580;57.670;12.006;2023-02-15T00:02:22;102801.06;;;11.46;80.86
13013;BME280;22580;57.670;12.006;2023-02-15T00:04:51;102769.31;;;11.37;80.52
13013;BME280;22580;57.670;12.006;2023-02-15T00:07:21;102878.50;;;12.35;79.21
13013;BME280;22580;57.670;12.006;2023-02-15T00:09:52;102832.66;;;12.21;78.34
13013;BME280;22580;57.670;12.006;2023-02-15T00:12:22;102670.56;;;11.29;78.15
13013;BME280;22580;57.670;12.006;2023-02-15T00:14:52;102663.06;;;11.37;77.85
13013;BME280;22580;57.670;12.006;2023-02-15T00:17:23;102775.06;;;12.10;77.43
13013;BME280;22580;57.670;12.006;2023-02-15T00:19:52;102729.19;;;11.77;77.71
13013;BME280;22580;57.670;12.006;2023-02-15T00:22:22;102719.13;;;11.82;77.09
13013;BME280;22580;57.670;12.006;2023-02-15T00:24:51;102821.69;;;12.45;77.01
13013;BME280;22580;57.670;12.006;2023-02-15T00:27:24;102765.03;;;11.95;77.26
13013;BME280;22580;57.670;12.006;2023-02-15T00:30:04;102776.63;;;11.96;77.74
13013;BME280;22580;57.670;12.006;2023-02-15T00:32:53;102755.03;;;11.78;77.64
13013;BME280;22580;57.670;12.006;2023-02-15T00:35:23;102727.16;;;11.62;77.71
13013;BME280;22580;57.670;12.006;2023-02-15T00:37:53;102708.25;;;11.45;77.97
13013;BME280;22580;57.670;12.006;2023-02-15T00:40:23;102790.53;;;12.04;77.62
13013;BME280;22580;57.670;12.006;2023-02-15T00:42:53;102780.38;;;11.92;77.66
13013;BME280;22580;57.670;12.006;2023-02-15T00:45:25;102801.53;;;11.77;78.25
13013;BME280;22580;57.670;12.006;2023-02-15T00:48:12;102753.41;;;11.54;78.51
13013;BME280;22580;57.670;12.006;2023-02-15T00:50:41;102693.47;;;11.16;78.38
13013;BME280;22580;57.670;12.006;2023-02-15T00:53:11;102621.66;;;10.63;78.31
13013;BME280;22580;57.670;12.006;2023-02-15T00:55:44;102685.31;;;11.19;78.44
13013;BME280;22580;57.670;12.006;2023-02-15T00:58:12;102835.41;;;12.19;78.30
13013;BME280;22580;57.670;12.006;2023-02-15T01:00:43;102830.19;;;12.16;78.22
13013;BME280;22580;57.670;12.006;2023-02-15T01:03:11;102833.25;;;12.27;77.66
13013;BME280;22580;57.670;12.006;2023-02-15T01:05:45;102828.50;;;12.13;77.61
13013;BME280;22580;57.670;12.006;2023-02-15T01:08:25;102820.97;;;11.82;79.19
13013;BME280;22580;57.670;12.006;2023-02-15T01:11:03;102787.00;;;11.83;79.15
13013;BME280;22580;57.670;12.006;2023-02-15T01:13:32;102791.69;;;11.98;78.82
13013;BME280;22580;57.670;12.006;2023-02-15T01:16:03;102767.69;;;11.95;78.34
13013;BME280;22580;57.670;12.006;2023-02-15T01:18:33;102799.84;;;12.34;77.99
13013;BME280;22580;57.670;12.006;2023-02-15T01:21:10;102750.69;;;11.96;77.67
13013;BME280;22580;57.670;12.006;2023-02-15T01:23:45;102615.03;;;10.94;78.32
13013;BME280;22580;57.670;12.006;2023-02-15T01:26:25;102821.44;;;12.31;78.28
13013;BME280;22580;57.670;12.006;2023-02-15T01:29:04;102694.59;;;11.92;77.44
13013;BME280;22580;57.670;12.006;2023-02-15T01:31:32;102624.16;;;11.49;77.36
13013;BME280;22580;57.670;12.006;2023-02-15T01:34:01;102787.25;;;12.36;77.58
13013;BME280;22580;57.670;12.006;2023-02-15T01:36:30;102789.78;;;12.39;77.78
13013;BME280;22580;57.670;12.006;2023-02-15T01:39:02;102779.84;;;12.41;77.91
13013;BME280;22580;57.670;12.006;2023-02-15T01:41:42;102672.78;;;11.40;79.08
13013;BME280;22580;57.670;12.006;2023-02-15T01:44:54;102777.34;;;11.99;79.92
13013;BME280;22580;57.670;12.006;2023-02-15T01:47:42;102777.09;;;11.85;80.35
13013;BME280;22580;57.670;12.006;2023-02-15T01:50:14;102720.59;;;11.90;79.27
13013;BME280;22580;57.670;12.006;2023-02-15T01:52:52;102766.16;;;12.29;78.50
13013;BME280;22580;57.670;12.006;2023-02-15T01:55:22;102761.00;;;12.43;78.04
13013;BME280;22580;57.670;12.006;2023-02-15T01:57:53;102754.41;;;12.50;76.83
13013;BME280;22580;57.670;12.006;2023-02-15T02:00:23;102642.03;;;11.48;78.07
13013;BME280;22580;57.670;12.006;2023-02-15T02:02:55;102737.03;;;11.82;79.35
13013;BME280;22580;57.670;12.006;2023-02-15T02:05:32;102684.59;;;11.75;79.13
13013;BME280;22580;57.670;12.006;2023-02-15T02:08:02;102730.44;;;11.89;79.44
13013;BME280;22580;57.670;12.006;2023-02-15T02:10:32;102758.53;;;11.80;79.33
13013;BME280;22580;57.670;12.006;2023-02-15T02:13:02;102630.31;;;11.51;78.03
13013;BME280;22580;57.670;12.006;2023-02-15T02:15:45;102674.66;;;11.78;78.07
13013;BME280;22580;57.670;12.006;2023-02-15T02:18:53;102714.69;;;12.02;77.59
13013;BME280;22580;57.670;12.006;2023-02-15T02:22:01;102660.97;;;11.64;78.20
13013;BME280;22580;57.670;12.006;2023-02-15T02:24:58;102730.28;;;12.12;78.64
13013;BME280;22580;57.670;12.006;2023-02-15T02:27:38;102739.75;;;12.20;76.95
13013;BME280;22580;57.670;12.006;2023-02-15T02:30:39;102696.00;;;12.00;77.36
13013;BME280;22580;57.670;12.006;2023-02-15T02:33:37;102674.09;;;11.91;77.51
13013;BME280;22580;57.670;12.006;2023-02-15T02:36:15;102699.81;;;12.32;76.74
13013;BME280;22580;57.670;12.006;2023-02-15T02:39:06;102627.78;;;11.48;77.45
13013;BME280;22580;57.670;12.006;2023-02-15T02:41:45;102714.84;;;12.36;76.33
13013;BME280;22580;57.670;12.006;2023-02-15T02:44:25;102716.28;;;12.25;77.31
13013;BME280;22580;57.670;12.006;2023-02-15T02:50:05;102702.50;;;11.95;78.30
13013;BME280;22580;57.670;12.006;2023-02-15T02:52:53;102621.19;;;11.75;77.15
13013;BME280;22580;57.670;12.006;2023-02-15T02:55:26;102577.41;;;11.56;76.78
13013;BME280;22580;57.670;12.006;2023-02-15T02:58:18;102696.94;;;12.37;76.62
13013;BME280;22580;57.670;12.006;2023-02-15T03:00:52;102685.84;;;12.44;76.30
13013;BME280;22580;57.670;12.006;2023-02-15T03:03:29;102692.88;;;12.47;75.73
13013;BME280;22580;57.670;12.006;2023-02-15T03:06:03;102682.72;;;12.35;76.29
13013;BME280;22580;57.670;12.006;2023-02-15T03:08:47;102609.72;;;11.92;76.17
13013;BME280;22580;57.670;12.006;2023-02-15T03:11:15;102640.00;;;12.13;76.27
13013;BME280;22580;57.670;12.006;2023-02-15T03:13:53;102547.66;;;11.62;75.86
13013;BME280;22580;57.670;12.006;2023-02-15T03:16:22;102481.22;;;11.14;76.13
13013;BME280;22580;57.670;12.006;2023-02-15T03:19:13;102539.56;;;11.64;76.19
13013;BME280;22580;57.670;12.006;2023-02-15T03:22:04;102443.00;;;11.10;75.96
13013;BME280;22580;57.670;12.006;2023-02-15T03:24:56;102539.06;;;11.56;76.10
13013;BME280;22580;57.670;12.006;2023-02-15T03:27:54;102443.53;;;11.19;75.69
13013;BME280;22580;57.670;12.006;2023-02-15T03:30:25;102532.03;;;11.72;75.11
13013;BME280;22580;57.670;12.006;2023-02-15T03:33:02;102654.63;;;12.06;77.30
13013;BME280;22580;57.670;12.006;2023-02-15T03:35:46;102667.00;;;12.27;76.69
13013;BME280;22580;57.670;12.006;2023-02-15T03:38:35;102494.03;;;11.26;76.43
13013;BME280;22580;57.670;12.006;2023-02-15T03:41:24;102608.97;;;11.89;76.57
13013;BME280;22580;57.670;12.006;2023-02-15T03:43:55;102527.97;;;11.26;77.58
13013;BME280;22580;57.670;12.006;2023-02-15T03:46:53;102649.75;;;12.14;77.40
13013;BME280;22580;57.670;12.006;2023-02-15T03:49:39;102455.25;;;10.77;77.95
13013;BME280;22580;57.670;12.006;2023-02-15T03:52:15;102520.50;;;11.32;77.98
13013;BME280;22580;57.670;12.006;2023-02-15T03:55:24;102454.94;;;11.03;77.35
13013;BME280;22580;57.670;12.006;2023-02-15T03:57:53;102424.88;;;10.78;76.58
13013;BME280;22580;57.670;12.006;2023-02-15T04:00:50;102636.97;;;12.38;76.13
13013;BME280;22580;57.670;12.006;2023-02-15T04:03:43;102620.75;;;12.22;76.50
13013;BME280;22580;57.670;12.006;2023-02-15T04:06:22;102639.59;;;12.21;76.54
13013;BME280;22580;57.670;12.006;2023-02-15T04:08:51;102639.00;;;12.33;76.99
13013;BME280;22580;57.670;12.006;2023-02-15T04:11:42;102578.59;;;11.69;77.79
13013;BME280;22580;57.670;12.006;2023-02-15T04:14:12;102502.03;;;11.07;77.86
13013;BME280;22580;57.670;12.006;2023-02-15T04:16:53;102548.91;;;11.55;77.05
13013;BME280;22580;57.670;12.006;2023-02-15T04:19:23;102571.41;;;11.70;77.53
13013;BME280;22580;57.670;12.006;2023-02-15T04:22:14;102620.22;;;11.97;77.86
13013;BME280;22580;57.670;12.006;2023-02-15T04:24:58;102627.97;;;12.03;77.99
13013;BME280;22580;57.670;12.006;2023-02-15T04:27:43;102564.91;;;11.75;77.56
13013;BME280;22580;57.670;12.006;2023-02-15T04:30:12;102624.41;;;11.63;78.44
13013;BME280;22580;57.670;12.006;2023-02-15T04:32:43;102591.13;;;11.69;78.27
13013;BME280;22580;57.670;12.006;2023-02-15T04:35:13;102617.53;;;11.78;79.05
13013;BME280;22580;57.670;12.006;2023-02-15T04:37:43;102479.97;;;11.02;78.86
13013;BME280;22580;57.670;12.006;2023-02-15T04:40:14;102595.53;;;11.70;78.69
13013;BME280;22580;57.670;12.006;2023-02-15T04:42:43;102612.38;;;11.92;78.90
13013;BME280;22580;57.670;12.006;2023-02-15T04:45:12;102588.63;;;12.03;77.64
13013;BME280;22580;57.670;12.006;2023-02-15T04:47:45;102461.44;;;11.35;77.30
13013;BME280;22580;57.670;12.006;2023-02-15T04:50:31;102612.41;;;12.28;77.16
13013;BME280;22580;57.670;12.006;2023-02-15T04:53:01;102480.56;;;11.46;76.86
13013;BME280;22580;57.670;12.006;2023-02-15T04:55:31;102612.38;;;12.11;77.60
13013;BME280;22580;57.670;12.006;2023-02-15T04:58:02;102555.09;;;11.95;77.17
13013;BME280;22580;57.670;12.006;2023-02-15T05:00:32;102605.59;;;12.21;77.33
13013;BME280;22580;57.670;12.006;2023-02-15T05:03:02;102604.78;;;12.02;77.46
13013;BME280;22580;57.670;12.006;2023-02-15T05:05:35;102565.19;;;11.69;78.59
13013;BME280;22580;57.670;12.006;2023-02-15T05:08:12;102511.19;;;11.60;78.35
13013;BME280;22580;57.670;12.006;2023-02-15T05:10:42;102480.06;;;11.20;78.60
13013;BME280;22580;57.670;12.006;2023-02-15T05:13:13;102591.53;;;11.80;79.67
13013;BME280;22580;57.670;12.006;2023-02-15T05:15:52;102438.44;;;10.94;79.62
13013;BME280;22580;57.670;12.006;2023-02-15T05:18:34;102388.19;;;10.61;79.77
13013;BME280;22580;57.670;12.006;2023-02-15T05:21:01;102523.56;;;11.62;78.94
13013;BME280;22580;57.670;12.006;2023-02-15T05:23:42;102453.00;;;11.07;79.25
13013;BME280;22580;57.670;12.006;2023-02-15T05:26:21;102441.03;;;10.95;79.74
13013;BME280;22580;57.670;12.006;2023-02-15T05:29:15;102507.84;;;11.17;80.55
13013;BME280;22580;57.670;12.006;2023-02-15T05:31:54;102376.16;;;10.51;80.10
13013;BME280;22580;57.670;12.006;2023-02-15T05:34:24;102478.25;;;11.20;80.10
13013;BME280;22580;57.670;12.006;2023-02-15T05:36:53;102540.34;;;11.66;79.70
13013;BME280;22580;57.670;12.006;2023-02-15T05:39:34;102578.41;;;11.93;79.40
13013;BME280;22580;57.670;12.006;2023-02-15T05:42:11;102537.53;;;11.69;79.08
13013;BME280;22580;57.670;12.006;2023-02-15T05:44:42;102568.28;;;11.80;78.97
13013;BME280;22580;57.670;12.006;2023-02-15T05:47:45;102446.00;;;10.84;80.33
13013;BME280;22580;57.670;12.006;2023-02-15T05:50:11;102347.13;;;10.62;79.17
13013;BME280;22580;57.670;12.006;2023-02-15T05:52:53;102505.97;;;11.75;78.42
13013;BME280;22580;57.670;12.006;2023-02-15T05:55:23;102434.75;;;11.34;77.84
13013;BME280;22580;57.670;12.006;2023-02-15T05:57:53;102455.75;;;11.24;78.69
13013;BME280;22580;57.670;12.006;2023-02-15T06:00:24;102467.16;;;11.46;78.17
13013;BME280;22580;57.670;12.006;2023-02-15T06:02:54;102555.44;;;12.06;78.40
13013;BME280;22580;57.670;12.006;2023-02-15T06:05:24;102382.59;;;10.86;78.14
13013;BME280;22580;57.670;12.006;2023-02-15T06:07:54;102573.84;;;11.95;78.48
13013;BME280;22580;57.670;12.006;2023-02-15T06:10:42;102367.69;;;10.80;78.26
13013;BME280;22580;57.670;12.006;2023-02-15T06:13:12;102471.00;;;11.41;78.71
13013;BME280;22580;57.670;12.006;2023-02-15T06:15:53;102326.59;;;10.63;77.82
13013;BME280;22580;57.670;12.006;2023-02-15T06:18:23;102413.50;;;11.12;78.04
13013;BME280;22580;57.670;12.006;2023-02-15T06:20:54;102416.88;;;10.97;78.62
13013;BME280;22580;57.670;12.006;2023-02-15T06:23:35;102447.28;;;11.14;79.08
13013;BME280;22580;57.670;12.006;2023-02-15T06:26:13;102394.69;;;10.95;78.96
13013;BME280;22580;57.670;12.006;2023-02-15T06:28:42;102390.81;;;10.81;78.87
13013;BME280;22580;57.670;12.006;2023-02-15T06:31:14;102550.47;;;11.79;79.19
13013;BME280;22580;57.670;12.006;2023-02-15T06:33:41;102384.56;;;10.62;79.39
13013;BME280;22580;57.670;12.006;2023-02-15T06:36:14;102530.34;;;11.50;80.00
13013;BME280;22580;57.670;12.006;2023-02-15T06:38:41;102419.38;;;10.81;80.39
13013;BME280;22580;57.670;12.006;2023-02-15T06:41:11;102536.66;;;11.68;79.98
13013;BME280;22580;57.670;12.006;2023-02-15T06:43:45;102457.31;;;11.09;79.96
13013;BME280;22580;57.670;12.006;2023-02-15T06:46:22;102426.72;;;10.96;79.68
13013;BME280;22580;57.670;12.006;2023-02-15T06:48:51;102550.78;;;11.72;80.43
13013;BME280;22580;57.670;12.006;2023-02-15T06:51:18;102367.41;;;10.87;79.91
13013;BME280;22580;57.670;12.006;2023-02-15T06:53:53;102408.94;;;11.14;81.34
13013;BME280;22580;57.670;12.006;2023-02-15T06:56:22;102425.88;;;11.14;81.93
13013;BME280;22580;57.670;12.006;2023-02-15T06:58:55;102535.19;;;12.18;80.33
13013;BME280;22580;57.670;12.006;2023-02-15T07:01:35;102389.34;;;11.49;79.41
13013;BME280;22580;57.670;12.006;2023-02-15T07:04:03;102468.84;;;11.87;80.38
13013;BME280;22580;57.670;12.006;2023-02-15T07:06:33;102522.84;;;12.50;79.12
13013;BME280;22580;57.670;12.006;2023-02-15T07:09:02;102490.16;;;12.24;78.91
13013;BME280;22580;57.670;12.006;2023-02-15T07:11:30;102527.84;;;12.04;80.28
13013;BME280;22580;57.670;12.006;2023-02-15T07:14:14;102522.47;;;12.04;78.41
13013;BME280;22580;57.670;12.006;2023-02-15T07:16:46;102537.41;;;12.09;78.15
13013;BME280;22580;57.670;12.006;2023-02-15T07:19:16;102531.03;;;11.93;78.25
13013;BME280;22580;57.670;12.006;2023-02-15T07:21:43;102416.38;;;11.07;78.99
13013;BME280;22580;57.670;12.006;2023-02-15T07:24:13;102529.28;;;12.11;78.23
13013;BME280;22580;57.670;12.006;2023-02-15T07:26:42;102526.13;;;12.20;78.15
13013;BME280;22580;57.670;12.006;2023-02-15T07:29:12;102532.47;;;12.36;77.17
13013;BME280;22580;57.670;12.006;2023-02-15T07:31:49;102457.59;;;11.97;76.57
13013;BME280;22580;57.670;12.006;2023-02-15T07:34:16;102352.53;;;11.36;76.44
13013;BME280;22580;57.670;12.006;2023-02-15T07:36:53;102414.81;;;11.58;76.89
13013;BME280;22580;57.670;12.006;2023-02-15T07:39:23;102520.44;;;12.26;76.98
13013;BME280;22580;57.670;12.006;2023-02-15T07:41:55;102503.94;;;12.17;77.43
13013;BME280;22580;57.670;12.006;2023-02-15T07:44:28;102335.59;;;10.99;77.39
13013;BME280;22580;57.670;12.006;2023-02-15T07:46:59;102520.28;;;12.12;78.39
13013;BME280;22580;57.670;12.006;2023-02-15T07:49:27;102513.03;;;12.31;78.36
13013;BME280;22580;57.670;12.006;2023-02-15T07:52:06;102517.63;;;12.46;78.22
13013;BME280;22580;57.670;12.006;2023-02-15T07:54:36;102499.19;;;12.58;77.68
13013;BME280;22580;57.670;12.006;2023-02-15T07:57:03;102515.84;;;12.64;77.75
13013;BME280;22580;57.670;12.006;2023-02-15T07:59:32;102494.59;;;12.60;78.22
13013;BME280;22580;57.670;12.006;2023-02-15T08:02:01;102509.00;;;12.23;78.70
13013;BME280;22580;57.670;12.006;2023-02-15T08:04:30;102502.28;;;12.14;79.15
13013;BME280;22580;57.670;12.006;2023-02-15T08:06:57;102498.56;;;12.53;77.20
13013;BME280;22580;57.670;12.006;2023-02-15T08:09:24;102506.53;;;12.71;76.19
13013;BME280;22580;57.670;12.006;2023-02-15T08:11:51;102321.19;;;11.38;76.85
13013;BME280;22580;57.670;12.006;2023-02-15T08:14:20;102479.94;;;12.50;77.31
13013;BME280;22580;57.670;12.006;2023-02-15T08:16:58;102478.34;;;12.45;77.93
13013;BME280;22580;57.670;12.006;2023-02-15T08:19:32;102421.78;;;12.33;76.15
13013;BME280;22580;57.670;12.006;2023-02-15T08:22:04;102421.47;;;12.39;77.60
13013;BME280;22580;57.670;12.006;2023-02-15T08:24:33;102478.91;;;12.69;75.36
13013;BME280;22580;57.670;12.006;2023-02-15T08:27:03;102440.41;;;12.53;75.27
13013;BME280;22580;57.670;12.006;2023-02-15T08:29:32;102471.94;;;12.31;76.57
13013;BME280;22580;57.670;12.006;2023-02-15T08:32:04;102470.28;;;12.28;75.81
13013;BME280;22580;57.670;12.006;2023-02-15T08:34:34;102465.00;;;12.27;76.75
13013;BME280;22580;57.670;12.006;2023-02-15T08:37:15;102444.09;;;12.68;74.98
13013;BME280;22580;57.670;12.006;2023-02-15T08:39:43;102429.91;;;12.31;75.73
13013;BME280;22580;57.670;12.006;2023-02-15T08:42:14;102403.13;;;11.42;78.85
13013;BME280;22580;57.670;12.006;2023-02-15T08:44:45;102453.78;;;11.84;78.29
13013;BME280;22580;57.670;12.006;2023-02-15T08:47:24;102262.94;;;10.71;79.40
13013;BME280;22580;57.670;12.006;2023-02-15T08:53:13;102350.31;;;11.27;79.18
13013;BME280;22580;57.670;12.006;2023-02-15T08:56:03;102394.72;;;11.49;79.49
13013;BME280;22580;57.670;12.006;2023-02-15T08:58:33;102424.69;;;11.39;80.74
13013;BME280;22580;57.670;12.006;2023-02-15T09:01:14;102289.38;;;10.96;79.23
13013;BME280;22580;57.670;12.006;2023-02-15T09:03:44;102337.41;;;11.35;79.05
13013;BME280;22580;57.670;12.006;2023-02-15T09:06:12;102392.31;;;11.62;78.73
13013;BME280;22580;57.670;12.006;2023-02-15T09:08:44;102355.06;;;11.39;79.32
13013;BME280;22580;57.670;12.006;2023-02-15T09:11:13;102398.94;;;12.08;77.93
13013;BME280;22580;57.670;12.006;2023-02-15T09:13:49;102375.84;;;11.89;77.71
13013;BME280;22580;57.670;12.006;2023-02-15T09:16:22;102325.22;;;11.82;78.88
13013;BME280;22580;57.670;12.006;2023-02-15T09:18:52;102393.00;;;12.36;76.81
13013;BME280;22580;57.670;12.006;2023-02-15T09:21:23;102415.84;;;12.61;75.88
13013;BME280;22580;57.670;12.006;2023-02-15T09:23:56;102419.19;;;12.48;75.92
13013;BME280;22580;57.670;12.006;2023-02-15T09:26:31;102414.69;;;12.49;76.08
13013;BME280;22580;57.670;12.006;2023-02-15T09:29:02;102407.59;;;11.96;77.41
13013;BME280;22580;57.670;12.006;2023-02-15T09:31:39;102408.97;;;12.05;77.45
13013;BME280;22580;57.670;12.006;2023-02-15T09:34:12;102354.66;;;11.65;78.32
13013;BME280;22580;57.670;12.006;2023-02-15T09:36:44;102293.63;;;11.19;79.25
13013;BME280;22580;57.670;12.006;2023-02-15T09:39:22;102354.03;;;11.24;79.88
13013;BME280;22580;57.670;12.006;2023-02-15T09:48:06;102275.94;;;10.97;79.30
13013;BME280;22580;57.670;12.006;2023-02-15T09:51:09;102395.69;;;11.85;80.71
13013;BME280;22580;57.670;12.006;2023-02-15T09:54:06;102389.78;;;11.78;81.03
13013;BME280;22580;57.670;12.006;2023-02-15T09:57:03;102185.72;;;10.82;79.50
13013;BME280;22580;57.670;12.006;2023-02-15T09:59:47;102389.63;;;11.98;79.64
13013;BME280;22580;57.670;12.006;2023-02-15T10:02:32;102386.47;;;11.90;79.44
13013;BME280;22580;57.670;12.006;2023-02-15T10:05:21;102360.47;;;11.92;78.55
13013;BME280;22580;57.670;12.006;2023-02-15T10:08:24;102392.88;;;12.05;78.84
13013;BME280;22580;57.670;12.006;2023-02-15T10:11:54;102397.81;;;11.78;80.28
13013;BME280;22580;57.670;12.006;2023-02-15T10:43:43;102327.28;;;11.41;80.48
13013;BME280;22580;57.670;12.006;2023-02-15T10:46:35;102272.44;;;11.31;80.05
13013;BME280;22580;57.670;12.006;2023-02-15T10:49:23;102350.06;;;11.86;79.83
13013;BME280;22580;57.670;12.006;2023-02-15T10:52:27;102354.84;;;12.14;78.99
13013;BME280;22580;57.670;12.006;2023-02-15T10:55:09;102339.38;;;12.19;78.21
13013;BME280;22580;57.670;12.006;2023-02-15T10:57:53;102266.66;;;11.75;78.07
13013;BME280;22580;57.670;12.006;2023-02-15T11:03:33;102218.19;;;11.28;78.37
13013;BME280;22580;57.670;12.006;2023-02-15T11:06:14;102347.16;;;12.08;78.45
13013;BME280;22580;57.670;12.006;2023-02-15T11:09:02;102360.41;;;12.11;78.43
13013;BME280;22580;57.670;12.006;2023-02-15T11:11:36;102211.25;;;11.58;78.38
13013;BME280;22580;57.670;12.006;2023-02-15T11:14:35;102344.50;;;12.24;79.10
13013;BME280;22580;57.670;12.006;2023-02-15T11:17:25;102217.16;;;11.65;77.69
13013;BME280;22580;57.670;12.006;2023-02-15T11:23:13;102250.66;;;11.73;78.24
13013;BME280;22580;57.670;12.006;2023-02-15T11:26:03;102281.16;;;11.71;78.76
13013;BME280;22580;57.670;12.006;2023-02-15T11:28:36;102343.91;;;12.01;79.46
13013;BME280;22580;57.670;12.006;2023-02-15T11:31:16;102211.56;;;11.35;79.46
13013;BME280;22580;57.670;12.006;2023-02-15T11:34:05;102330.53;;;12.34;78.58
13013;BME280;22580;57.670;12.006;2023-02-15T11:36:43;102150.91;;;11.18;79.42
13013;BME280;22580;57.670;12.006;2023-02-15T11:39:15;102325.50;;;12.28;79.57
13013;BME280;22580;57.670;12.006;2023-02-15T11:42:14;102193.00;;;11.14;80.35
13013;BME280;22580;57.670;12.006;2023-02-15T11:45:02;102139.00;;;11.06;79.95
13013;BME280;22580;57.670;12.006;2023-02-15T11:47:33;102255.56;;;11.82;79.53
13013;BME280;22580;57.670;12.006;2023-02-15T11:50:14;102195.91;;;11.27;80.92
13013;BME280;22580;57.670;12.006;2023-02-15T11:52:54;102321.09;;;11.58;83.23
13013;BME280;22580;57.670;12.006;2023-02-15T11:55:34;102227.16;;;11.27;82.56
13013;BME280;22580;57.670;12.006;2023-02-15T11:58:13;102101.38;;;10.75;82.52
13013;BME280;22580;57.670;12.006;2023-02-15T12:01:18;102185.75;;;11.51;81.90
13013;BME280;22580;57.670;12.006;2023-02-15T12:04:06;102109.88;;;11.18;81.38
13013;BME280;22580;57.670;12.006;2023-02-15T12:06:49;102181.25;;;11.69;81.43
13013;BME280;22580;57.670;12.006;2023-02-15T12:09:27;102205.19;;;11.72;82.10
13013;BME280;22580;57.670;12.006;2023-02-15T12:12:23;102220.13;;;11.77;82.68
13013;BME280;22580;57.670;12.006;2023-02-15T12:14:55;102209.84;;;11.68;83.28
13013;BME280;22580;57.670;12.006;2023-02-15T12:17:34;102239.72;;;11.78;83.86
13013;BME280;22580;57.670;12.006;2023-02-15T12:20:36;102243.97;;;12.15;83.13
13013;BME280;22580;57.670;12.006;2023-02-15T12:23:13;102272.72;;;12.13;84.57
13013;BME280;22580;57.670;12.006;2023-02-15T12:26:03;102275.56;;;12.26;84.42
13013;BME280;22580;57.670;12.006;2023-02-15T12:28:36;102228.06;;;11.96;84.13
13013;BME280;22580;57.670;12.006;2023-02-15T12:31:26;102051.09;;;11.16;83.48
13013;BME280;22580;57.670;12.006;2023-02-15T12:34:17;102265.19;;;11.87;85.64
13013;BME280;22580;57.670;12.006;2023-02-15T12:37:00;102266.91;;;12.21;84.96
13013;BME280;22580;57.670;12.006;2023-02-15T12:39:52;102258.56;;;12.42;84.09
13013;BME280;22580;57.670;12.006;2023-02-15T12:42:23;102263.06;;;12.42;83.91
13013;BME280;22580;57.670;12.006;2023-02-15T12:44:59;102263.91;;;12.27;84.33
13013;BME280;22580;57.670;12.006;2023-02-15T12:47:41;102252.69;;;12.36;83.85
13013;BME280;22580;57.670;12.006;2023-02-15T12:50:22;102226.91;;;12.33;83.25
13013;BME280;22580;57.670;12.006;2023-02-15T12:53:13;102175.59;;;12.08;82.94
13013;BME280;22580;57.670;12.006;2023-02-15T12:56:02;102029.06;;;11.27;82.83
13013;BME280;22580;57.670;12.006;2023-02-15T12:58:33;102173.09;;;12.05;83.60
13013;BME280;22580;57.670;12.006;2023-02-15T13:01:20;102230.88;;;12.26;83.89
13013;BME280;22580;57.670;12.006;2023-02-15T13:04:13;102221.19;;;12.39;83.03
13013;BME280;22580;57.670;12.006;2023-02-15T13:06:55;102233.31;;;11.98;83.73
13013;BME280;22580;57.670;12.006;2023-02-15T13:09:44;102223.44;;;12.31;83.69
13013;BME280;22580;57.670;12.006;2023-02-15T13:15:02;102197.03;;;12.08;83.80
13013;BME280;22580;57.670;12.006;2023-02-15T13:17:33;102233.47;;;12.28;84.18
13013;BME280;22580;57.670;12.006;2023-02-15T13:20:04;102069.03;;;11.14;84.79
13013;BME280;22580;57.670;12.006;2023-02-15T13:22:50;102103.28;;;11.58;84.06
13013;BME280;22580;57.670;12.006;2023-02-15T13:28:46;102071.53;;;11.50;84.34
13013;BME280;22580;57.670;12.006;2023-02-15T13:31:32;102132.91;;;11.55;85.51
13013;BME280;22580;57.670;12.006;2023-02-15T13:34:15;102000.19;;;10.48;86.41
13013;BME280;22580;57.670;12.006;2023-02-15T13:37:03;102119.91;;;11.47;86.11
13013;BME280;22580;57.670;12.006;2023-02-15T13:39:45;102067.34;;;11.29;85.68
13013;BME280;22580;57.670;12.006;2023-02-15T13:42:36;102198.50;;;11.98;85.95
13013;BME280;22580;57.670;12.006;2023-02-15T13:45:35;102178.28;;;12.24;85.32
13013;BME280;22580;57.670;12.006;2023-02-15T13:48:57;102093.78;;;11.68;85.27
13013;BME280;22580;57.670;12.006;2023-02-15T13:51:44;102182.16;;;12.18;85.56
13013;BME280;22580;57.670;12.006;2023-02-15T13:54:47;102155.34;;;12.18;85.12
13013;BME280;22580;57.670;12.006;2023-02-15T13:57:43;102178.69;;;12.16;86.23
13013;BME280;22580;57.670;12.006;2023-02-15T14:00:22;102048.94;;;11.23;86.21
13013;BME280;22580;57.670;12.006;2023-02-15T14:06:16;102154.06;;;12.57;87.32
13013;BME280;22580;57.670;12.006;2023-02-15T14:09:03;102125.84;;;12.65;85.52
13013;BME280;22580;57.670;12.006;2023-02-15T14:11:55;102030.97;;;11.73;84.71
13013;BME280;22580;57.670;12.006;2023-02-15T14:14:56;102156.16;;;12.52;84.86
13013;BME280;22580;57.670;12.006;2023-02-15T14:17:53;102168.88;;;12.48;84.66
13013;BME280;22580;57.670;12.006;2023-02-15T14:20:45;102155.09;;;12.38;84.95
13013;BME280;22580;57.670;12.006;2023-02-15T14:23:35;102006.69;;;11.61;84.59
13013;BME280;22580;57.670;12.006;2023-02-15T14:26:25;102088.97;;;12.07;84.82
13013;BME280;22580;57.670;12.006;2023-02-15T14:29:16;101982.13;;;11.37;84.60
13013;BME280;22580;57.670;12.006;2023-02-15T14:32:16;101915.22;;;11.21;83.78
13013;BME280;22580;57.670;12.006;2023-02-15T14:35:15;102138.25;;;12.52;83.89
13013;BME280;22580;57.670;12.006;2023-02-15T14:38:02;102072.84;;;12.23;84.26